Time,TemperatureF,DewpointF,PressureIn,WindDirection,WindDirectionDegrees,WindSpeedMPH,WindSpeedGustMPH,Humidity,HourlyPrecipIn,Conditions,Clouds,dailyrainin,SoftwareType,DateUTC
2013-09-20 00:02:00,64.4,57.2,29.97,SSW,205,0.0,-999.9,77,-99.99,,,-99.99,,2013-09-20 04:02:00,
2013-09-20 00:08:00,64.4,57.2,29.97,SSW,205,0.0,-999.9,77,-99.99,,,-99.99,,2013-09-20 04:08:00,
2013-09-20 00:14:00,64.4,55.4,29.97,SSW,192,0.0,-999.9,73,-99.99,,,-99.99,,2013-09-20 04:14:00,
2013-09-20 00:20:00,64.4,55.4,29.97,SSW,192,0.0,-999.9,73,-99.99,,,-99.99,,2013-09-20 04:20:00,
2013-09-20 00:26:00,64.4,57.2,29.97,SSW,194,4.6,-999.9,77,-99.99,,,-99.99,,2013-09-20 04:26:00,
2013-09-20 00:32:00,64.4,57.2,29.97,South,184,1.2,-999.9,77,-99.99,,,-99.99,,2013-09-20 04:32:00,
2013-09-20 00:38:00,64.4,57.2,29.97,South,184,1.2,-999.9,77,-99.99,,,-99.99,,2013-09-20 04:38:00,
2013-09-20 00:44:00,64.4,57.2,29.96,South,182,3.5,-999.9,77,-99.99,,,-99.99,,2013-09-20 04:44:00,
2013-09-20 00:50:00,64.4,57.2,29.96,South,182,3.5,-999.9,77,-99.99,,,-99.99,,2013-09-20 04:50:00,
2013-09-20 00:56:00,64.4,57.2,29.97,South,190,3.5,-999.9,77,-99.99,,,-99.99,,2013-09-20 04:56:00,
2013-09-20 01:12:00,64.4,57.2,29.97,North,0,0.0,-999.9,77,-99.99,,,-99.99,,2013-09-20 05:12:00,
2013-09-20 01:18:00,64.4,57.2,29.97,North,0,0.0,-999.9,77,-99.99,,,-99.99,,2013-09-20 05:18:00,
2013-09-20 01:32:00,64.4,57.2,29.97,SSW,213,0.0,-999.9,77,-99.99,,,-99.99,,2013-09-20 05:32:00,
2013-09-20 01:38:00,64.4,57.2,29.97,SSW,213,0.0,-999.9,77,-99.99,,,-99.99,,2013-09-20 05:38:00,
2013-09-20 02:02:00,64.4,57.2,29.97,WSW,240,2.3,-999.9,77,-99.99,,,-99.99,,2013-09-20 06:02:00,
2013-09-20 02:08:00,64.4,57.2,29.97,WSW,240,2.3,-999.9,77,-99.99,,,-99.99,,2013-09-20 06:08:00,
2013-09-20 02:14:00,64.4,57.2,29.97,WSW,240,2.3,-999.9,77,-99.99,,,-99.99,,2013-09-20 06:14:00,
2013-09-20 02:20:00,64.4,57.2,29.97,WSW,240,2.3,-999.9,77,-99.99,,,-99.99,,2013-09-20 06:20:00,
2013-09-20 02:26:00,64.4,57.2,29.97,North,0,0.0,-999.9,77,-99.99,,,-99.99,,2013-09-20 06:26:00,
2013-09-20 02:32:00,64.4,57.2,29.97,WSW,257,0.0,-999.9,77,-99.99,,,-99.99,,2013-09-20 06:32:00,
2013-09-20 02:38:00,64.4,57.2,29.97,WSW,257,0.0,-999.9,77,-99.99,,,-99.99,,2013-09-20 06:38:00,
2013-09-20 02:44:00,64.4,57.2,29.97,West,264,0.0,-999.9,77,-99.99,,,-99.99,,2013-09-20 06:44:00,
2013-09-20 02:50:00,64.4,57.2,29.97,West,264,0.0,-999.9,77,-99.99,,,-99.99,,2013-09-20 06:50:00,
2013-09-20 02:56:00,64.4,55.4,29.97,West,276,0.0,-999.9,73,-99.99,,,-99.99,,2013-09-20 06:56:00,
2013-09-20 03:02:00,64.4,55.4,29.97,WNW,283,8.1,-999.9,73,-99.99,,,-99.99,,2013-09-20 07:02:00,
2013-09-20 03:08:00,64.4,55.4,29.97,WNW,283,8.1,-999.9,73,-99.99,,,-99.99,,2013-09-20 07:08:00,
2013-09-20 03:14:00,64.4,55.4,29.98,WSW,257,5.8,-999.9,73,-99.99,,,-99.99,,2013-09-20 07:14:00,
2013-09-20 03:20:00,64.4,55.4,29.98,WSW,257,5.8,-999.9,73,-99.99,,,-99.99,,2013-09-20 07:20:00,
2013-09-20 03:26:00,64.4,55.4,29.97,West,277,8.1,-999.9,73,-99.99,,,-99.99,,2013-09-20 07:26:00,
2013-09-20 03:32:00,62.6,55.4,29.97,North,0,0.0,-999.9,77,-99.99,,,-99.99,,2013-09-20 07:32:00,
2013-09-20 03:38:00,62.6,55.4,29.97,North,0,0.0,-999.9,77,-99.99,,,-99.99,,2013-09-20 07:38:00,
2013-09-20 03:44:00,62.6,55.4,29.97,West,271,4.6,-999.9,77,-99.99,,,-99.99,,2013-09-20 07:44:00,
2013-09-20 03:50:00,62.6,55.4,29.97,West,271,4.6,-999.9,77,-99.99,,,-99.99,,2013-09-20 07:50:00,
2013-09-20 03:56:00,62.6,55.4,29.97,West,264,5.8,-999.9,77,-99.99,,,-99.99,,2013-09-20 07:56:00,
2013-09-20 04:02:00,64.4,55.4,29.98,WNW,288,8.1,-999.9,73,-99.99,,,-99.99,,2013-09-20 08:02:00,
2013-09-20 04:08:00,64.4,55.4,29.98,WNW,288,8.1,-999.9,73,-99.99,,,-99.99,,2013-09-20 08:08:00,
2013-09-20 04:14:00,64.4,55.4,29.97,West,273,0.0,-999.9,73,-99.99,,,-99.99,,2013-09-20 08:14:00,
2013-09-20 04:20:00,64.4,55.4,29.97,West,273,0.0,-999.9,73,-99.99,,,-99.99,,2013-09-20 08:20:00,
2013-09-20 04:26:00,62.6,55.4,29.97,North,0,0.0,-999.9,77,-99.99,,,-99.99,,2013-09-20 08:26:00,
2013-09-20 04:32:00,62.6,55.4,29.97,North,0,0.0,-999.9,77,-99.99,,,-99.99,,2013-09-20 08:32:00,
2013-09-20 04:38:00,62.6,55.4,29.97,North,0,0.0,-999.9,77,-99.99,,,-99.99,,2013-09-20 08:38:00,
2013-09-20 04:44:00,62.6,55.4,29.97,West,266,0.0,-999.9,77,-99.99,,,-99.99,,2013-09-20 08:44:00,
2013-09-20 04:50:00,62.6,55.4,29.97,West,266,0.0,-999.9,77,-99.99,,,-99.99,,2013-09-20 08:50:00,
2013-09-20 04:56:00,62.6,55.4,29.97,West,272,1.2,-999.9,77,-99.99,,,-99.99,,2013-09-20 08:56:00,
2013-09-20 05:02:00,62.6,55.4,29.97,WSW,251,3.5,-999.9,77,-99.99,,,-99.99,,2013-09-20 09:02:00,
2013-09-20 05:08:00,62.6,55.4,29.97,WSW,251,3.5,-999.9,77,-99.99,,,-99.99,,2013-09-20 09:08:00,
2013-09-20 05:14:00,62.6,55.4,29.97,North,0,0.0,-999.9,77,-99.99,,,-99.99,,2013-09-20 09:14:00,
2013-09-20 05:20:00,62.6,55.4,29.97,North,0,0.0,-999.9,77,-99.99,,,-99.99,,2013-09-20 09:20:00,
2013-09-20 05:26:00,62.6,55.4,29.97,West,265,4.6,-999.9,77,-99.99,,,-99.99,,2013-09-20 09:26:00,
2013-09-20 05:32:00,62.6,55.4,29.97,West,263,3.5,-999.9,77,-99.99,,,-99.99,,2013-09-20 09:32:00,
2013-09-20 05:38:00,62.6,55.4,29.97,West,263,3.5,-999.9,77,-99.99,,,-99.99,,2013-09-20 09:38:00,
2013-09-20 05:44:00,62.6,55.4,29.97,West,277,2.3,-999.9,77,-99.99,,,-99.99,,2013-09-20 09:44:00,
2013-09-20 05:50:00,62.6,55.4,29.97,West,277,2.3,-999.9,77,-99.99,,,-99.99,,2013-09-20 09:50:00,
2013-09-20 05:56:00,62.6,55.4,29.97,North,0,0.0,-999.9,77,-99.99,,,-99.99,,2013-09-20 09:56:00,
2013-09-20 06:02:00,62.6,55.4,29.97,WSW,257,2.3,-999.9,77,-99.99,,,-99.99,,2013-09-20 10:02:00,
2013-09-20 06:08:00,62.6,55.4,29.97,WSW,257,2.3,-999.9,77,-99.99,,,-99.99,,2013-09-20 10:08:00,
2013-09-20 06:14:00,62.6,55.4,29.97,WSW,258,0.0,-999.9,77,-99.99,,,-99.99,,2013-09-20 10:14:00,
2013-09-20 06:20:00,62.6,55.4,29.97,WSW,258,0.0,-999.9,77,-99.99,,,-99.99,,2013-09-20 10:20:00,
2013-09-20 06:26:00,62.6,55.4,29.97,West,271,2.3,-999.9,77,-99.99,,,-99.99,,2013-09-20 10:26:00,
2013-09-20 06:32:00,62.6,55.4,29.97,West,266,2.3,-999.9,77,-99.99,,,-99.99,,2013-09-20 10:32:00,
2013-09-20 06:38:00,62.6,55.4,29.97,West,266,2.3,-999.9,77,-99.99,,,-99.99,,2013-09-20 10:38:00,
2013-09-20 06:44:00,62.6,55.4,29.98,North,0,0.0,-999.9,77,-99.99,,,-99.99,,2013-09-20 10:44:00,
2013-09-20 06:50:00,62.6,55.4,29.98,North,0,0.0,-999.9,77,-99.99,,,-99.99,,2013-09-20 10:50:00,
2013-09-20 06:56:00,60.8,55.4,29.98,North,0,0.0,-999.9,82,-99.99,,,-99.99,,2013-09-20 10:56:00,
2013-09-20 07:02:00,60.8,55.4,29.98,North,0,0.0,-999.9,82,-99.99,,,-99.99,,2013-09-20 11:02:00,
2013-09-20 07:08:00,60.8,55.4,29.98,North,0,0.0,-999.9,82,-99.99,,,-99.99,,2013-09-20 11:08:00,
2013-09-20 07:14:00,62.6,57.2,29.98,North,0,0.0,-999.9,82,-99.99,,,-99.99,,2013-09-20 11:14:00,
2013-09-20 07:20:00,62.6,57.2,29.98,North,0,0.0,-999.9,82,-99.99,,,-99.99,,2013-09-20 11:20:00,
2013-09-20 07:26:00,62.6,57.2,29.98,North,0,0.0,-999.9,82,-99.99,,,-99.99,,2013-09-20 11:26:00,
2013-09-20 07:32:00,64.4,57.2,29.98,North,0,0.0,-999.9,77,-99.99,,,-99.99,,2013-09-20 11:32:00,
2013-09-20 07:38:00,64.4,57.2,29.98,North,0,0.0,-999.9,77,-99.99,,,-99.99,,2013-09-20 11:38:00,
2013-09-20 07:44:00,64.4,57.2,29.98,North,0,0.0,-999.9,77,-99.99,,,-99.99,,2013-09-20 11:44:00,
2013-09-20 07:50:00,64.4,57.2,29.98,North,0,0.0,-999.9,77,-99.99,,,-99.99,,2013-09-20 11:50:00,
2013-09-20 07:56:00,64.4,57.2,29.98,North,0,0.0,-999.9,77,-99.99,,,-99.99,,2013-09-20 11:56:00,
2013-09-20 08:02:00,66.2,57.2,29.97,North,0,0.0,-999.9,73,-99.99,,,-99.99,,2013-09-20 12:02:00,
2013-09-20 08:08:00,66.2,57.2,29.97,North,0,0.0,-999.9,73,-99.99,,,-99.99,,2013-09-20 12:08:00,
2013-09-20 08:14:00,66.2,57.2,29.96,North,0,0.0,-999.9,73,-99.99,,,-99.99,,2013-09-20 12:14:00,
2013-09-20 08:20:00,66.2,57.2,29.96,North,0,0.0,-999.9,73,-99.99,,,-99.99,,2013-09-20 12:20:00,
2013-09-20 08:26:00,66.2,57.2,29.96,North,0,0.0,-999.9,73,-99.99,,,-99.99,,2013-09-20 12:26:00,
2013-09-20 08:32:00,68.0,57.2,29.96,North,0,0.0,-999.9,68,-99.99,,,-99.99,,2013-09-20 12:32:00,
2013-09-20 08:38:00,68.0,57.2,29.96,North,0,0.0,-999.9,68,-99.99,,,-99.99,,2013-09-20 12:38:00,
2013-09-20 08:44:00,68.0,57.2,29.96,North,0,0.0,-999.9,68,-99.99,,,-99.99,,2013-09-20 12:44:00,
2013-09-20 08:50:00,68.0,57.2,29.96,North,0,0.0,-999.9,68,-99.99,,,-99.99,,2013-09-20 12:50:00,
2013-09-20 08:56:00,68.0,57.2,29.96,North,0,0.0,-999.9,68,-99.99,,,-99.99,,2013-09-20 12:56:00,
2013-09-20 09:02:00,69.8,59.0,29.96,SW,215,1.2,-999.9,68,-99.99,,,-99.99,,2013-09-20 13:02:00,
2013-09-20 09:08:00,69.8,59.0,29.96,SW,215,1.2,-999.9,68,-99.99,,,-99.99,,2013-09-20 13:08:00,
2013-09-20 09:14:00,69.8,59.0,29.96,SW,215,1.2,-999.9,68,-99.99,,,-99.99,,2013-09-20 13:14:00,
2013-09-20 09:20:00,69.8,59.0,29.96,SW,215,1.2,-999.9,68,-99.99,,,-99.99,,2013-09-20 13:20:00,
2013-09-20 09:26:00,69.8,57.2,29.96,South,182,3.5,-999.9,64,-99.99,,,-99.99,,2013-09-20 13:26:00,
2013-09-20 09:32:00,71.6,59.0,29.96,North,0,0.0,-999.9,64,-99.99,,,-99.99,,2013-09-20 13:32:00,
2013-09-20 09:38:00,71.6,59.0,29.96,North,0,0.0,-999.9,64,-99.99,,,-99.99,,2013-09-20 13:38:00,
2013-09-20 09:44:00,71.6,57.2,29.96,SW,233,0.0,-999.9,60,-99.99,,,-99.99,,2013-09-20 13:44:00,
2013-09-20 09:50:00,71.6,57.2,29.96,SW,233,0.0,-999.9,60,-99.99,,,-99.99,,2013-09-20 13:50:00,
2013-09-20 09:56:00,71.6,55.4,29.95,SW,225,2.3,-999.9,57,-99.99,,,-99.99,,2013-09-20 13:56:00,
2013-09-20 10:02:00,71.6,55.4,29.95,WNW,290,1.2,-999.9,57,-99.99,,,-99.99,,2013-09-20 14:02:00,
2013-09-20 10:08:00,71.6,55.4,29.95,WNW,290,1.2,-999.9,57,-99.99,,,-99.99,,2013-09-20 14:08:00,
2013-09-20 10:14:00,71.6,55.4,29.95,WSW,241,1.2,-999.9,57,-99.99,,,-99.99,,2013-09-20 14:14:00,
2013-09-20 10:20:00,71.6,55.4,29.95,WSW,241,1.2,-999.9,57,-99.99,,,-99.99,,2013-09-20 14:20:00,
2013-09-20 10:26:00,73.4,57.2,29.94,WNW,285,5.8,-999.9,57,-99.99,,,-99.99,,2013-09-20 14:26:00,
2013-09-20 10:32:00,73.4,57.2,29.95,SW,223,3.5,-999.9,57,-99.99,,,-99.99,,2013-09-20 14:32:00,
2013-09-20 10:38:00,73.4,57.2,29.95,SW,223,3.5,-999.9,57,-99.99,,,-99.99,,2013-09-20 14:38:00,
2013-09-20 10:44:00,73.4,55.4,29.95,SSW,198,3.5,-999.9,53,-99.99,,,-99.99,,2013-09-20 14:44:00,
2013-09-20 10:50:00,73.4,55.4,29.95,SSW,198,3.5,-999.9,53,-99.99,,,-99.99,,2013-09-20 14:50:00,
2013-09-20 10:56:00,73.4,55.4,29.95,SW,219,6.9,-999.9,53,-99.99,,,-99.99,,2013-09-20 14:56:00,
2013-09-20 11:02:00,73.4,55.4,29.94,SSW,211,4.6,-999.9,53,-99.99,,,-99.99,,2013-09-20 15:02:00,
2013-09-20 11:08:00,73.4,55.4,29.94,SSW,211,4.6,-999.9,53,-99.99,,,-99.99,,2013-09-20 15:08:00,
2013-09-20 11:14:00,75.2,57.2,29.94,SSW,201,6.9,-999.9,53,-99.99,,,-99.99,,2013-09-20 15:14:00,
2013-09-20 11:20:00,75.2,57.2,29.94,SSW,201,6.9,-999.9,53,-99.99,,,-99.99,,2013-09-20 15:20:00,
2013-09-20 11:26:00,75.2,57.2,29.93,SW,217,1.2,-999.9,53,-99.99,,,-99.99,,2013-09-20 15:26:00,
2013-09-20 11:32:00,75.2,57.2,29.93,SSW,196,8.1,-999.9,53,-99.99,,,-99.99,,2013-09-20 15:32:00,
2013-09-20 11:38:00,75.2,57.2,29.93,SSW,196,8.1,-999.9,53,-99.99,,,-99.99,,2013-09-20 15:38:00,
2013-09-20 11:44:00,75.2,57.2,29.93,SSW,207,4.6,-999.9,53,-99.99,,,-99.99,,2013-09-20 15:44:00,
2013-09-20 11:50:00,75.2,57.2,29.93,SSW,207,4.6,-999.9,53,-99.99,,,-99.99,,2013-09-20 15:50:00,
2013-09-20 11:56:00,77.0,57.2,29.93,SSW,198,2.3,-999.9,50,-99.99,,,-99.99,,2013-09-20 15:56:00,
2013-09-20 12:02:00,75.2,55.4,29.92,SSW,208,4.6,-999.9,50,-99.99,,,-99.99,,2013-09-20 16:02:00,
2013-09-20 12:08:00,75.2,55.4,29.92,SSW,208,4.6,-999.9,50,-99.99,,,-99.99,,2013-09-20 16:08:00,
2013-09-20 12:14:00,77.0,55.4,29.91,WSW,238,3.5,-999.9,47,-99.99,,,-99.99,,2013-09-20 16:14:00,
2013-09-20 12:20:00,77.0,55.4,29.91,WSW,238,3.5,-999.9,47,-99.99,,,-99.99,,2013-09-20 16:20:00,
2013-09-20 12:26:00,78.8,55.4,29.91,North,0,0.0,-999.9,44,-99.99,,,-99.99,,2013-09-20 16:26:00,
2013-09-20 12:32:00,77.0,55.4,29.91,WSW,252,3.5,-999.9,47,-99.99,,,-99.99,,2013-09-20 16:32:00,
2013-09-20 12:38:00,77.0,55.4,29.91,WSW,252,3.5,-999.9,47,-99.99,,,-99.99,,2013-09-20 16:38:00,
2013-09-20 12:44:00,78.8,55.4,29.92,WSW,247,2.3,-999.9,44,-99.99,,,-99.99,,2013-09-20 16:44:00,
2013-09-20 12:50:00,78.8,55.4,29.92,WSW,247,2.3,-999.9,44,-99.99,,,-99.99,,2013-09-20 16:50:00,
2013-09-20 12:56:00,78.8,53.6,29.92,WSW,246,2.3,-999.9,42,-99.99,,,-99.99,,2013-09-20 16:56:00,
2013-09-20 13:02:00,78.8,53.6,29.91,South,187,4.6,-999.9,42,-99.99,,,-99.99,,2013-09-20 17:02:00,
2013-09-20 13:08:00,78.8,53.6,29.91,South,187,4.6,-999.9,42,-99.99,,,-99.99,,2013-09-20 17:08:00,
2013-09-20 13:14:00,78.8,53.6,29.90,SW,224,3.5,-999.9,42,-99.99,,,-99.99,,2013-09-20 17:14:00,
2013-09-20 13:20:00,78.8,53.6,29.90,SW,224,3.5,-999.9,42,-99.99,,,-99.99,,2013-09-20 17:20:00,
2013-09-20 13:26:00,78.8,53.6,29.89,SW,230,9.2,-999.9,42,-99.99,,,-99.99,,2013-09-20 17:26:00,
2013-09-20 13:32:00,78.8,53.6,29.89,SW,226,2.3,-999.9,42,-99.99,,,-99.99,,2013-09-20 17:32:00,
2013-09-20 13:38:00,78.8,53.6,29.89,SW,226,2.3,-999.9,42,-99.99,,,-99.99,,2013-09-20 17:38:00,
2013-09-20 13:44:00,78.8,55.4,29.89,SW,233,3.5,-999.9,44,-99.99,,,-99.99,,2013-09-20 17:44:00,
2013-09-20 13:50:00,78.8,55.4,29.89,SW,233,3.5,-999.9,44,-99.99,,,-99.99,,2013-09-20 17:50:00,
2013-09-20 13:56:00,80.6,55.4,29.89,SE,146,3.5,-999.9,42,-99.99,,,-99.99,,2013-09-20 17:56:00,
2013-09-20 14:02:00,80.6,55.4,29.89,SSW,202,4.6,-999.9,42,-99.99,,,-99.99,,2013-09-20 18:02:00,
2013-09-20 14:08:00,80.6,55.4,29.89,SSW,202,4.6,-999.9,42,-99.99,,,-99.99,,2013-09-20 18:08:00,
2013-09-20 14:14:00,78.8,55.4,29.88,South,184,12.7,-999.9,44,-99.99,,,-99.99,,2013-09-20 18:14:00,
2013-09-20 14:20:00,78.8,55.4,29.88,South,184,12.7,-999.9,44,-99.99,,,-99.99,,2013-09-20 18:20:00,
2013-09-20 14:26:00,78.8,55.4,29.88,South,183,10.4,-999.9,44,-99.99,,,-99.99,,2013-09-20 18:26:00,
2013-09-20 14:32:00,78.8,55.4,29.88,South,180,6.9,-999.9,44,-99.99,,,-99.99,,2013-09-20 18:32:00,
2013-09-20 14:38:00,78.8,55.4,29.88,South,180,6.9,-999.9,44,-99.99,,,-99.99,,2013-09-20 18:38:00,
2013-09-20 14:44:00,78.8,55.4,29.88,South,180,9.2,-999.9,44,-99.99,,,-99.99,,2013-09-20 18:44:00,
2013-09-20 14:50:00,78.8,55.4,29.88,South,180,9.2,-999.9,44,-99.99,,,-99.99,,2013-09-20 18:50:00,
2013-09-20 14:56:00,78.8,55.4,29.89,South,182,10.4,-999.9,44,-99.99,,,-99.99,,2013-09-20 18:56:00,
2013-09-20 15:02:00,77.0,53.6,29.89,South,182,17.3,-999.9,44,-99.99,,,-99.99,,2013-09-20 19:02:00,
2013-09-20 15:08:00,77.0,53.6,29.89,South,182,17.3,-999.9,44,-99.99,,,-99.99,,2013-09-20 19:08:00,
2013-09-20 15:14:00,78.8,53.6,29.89,South,188,8.1,-999.9,42,-99.99,,,-99.99,,2013-09-20 19:14:00,
2013-09-20 15:20:00,78.8,53.6,29.89,South,188,8.1,-999.9,42,-99.99,,,-99.99,,2013-09-20 19:20:00,
2013-09-20 15:26:00,78.8,55.4,29.88,South,172,13.8,-999.9,44,-99.99,,,-99.99,,2013-09-20 19:26:00,
2013-09-20 15:32:00,78.8,53.6,29.88,South,182,8.1,-999.9,42,-99.99,,,-99.99,,2013-09-20 19:32:00,
2013-09-20 15:38:00,78.8,53.6,29.88,South,182,8.1,-999.9,42,-99.99,,,-99.99,,2013-09-20 19:38:00,
2013-09-20 15:44:00,77.0,53.6,29.88,South,172,11.5,-999.9,44,-99.99,,,-99.99,,2013-09-20 19:44:00,
2013-09-20 15:50:00,77.0,53.6,29.88,South,172,11.5,-999.9,44,-99.99,,,-99.99,,2013-09-20 19:50:00,
2013-09-20 15:56:00,78.8,53.6,29.88,South,177,13.8,-999.9,42,-99.99,,,-99.99,,2013-09-20 19:56:00,
2013-09-20 16:02:00,78.8,53.6,29.88,South,180,13.8,-999.9,42,-99.99,,,-99.99,,2013-09-20 20:02:00,
2013-09-20 16:08:00,78.8,53.6,29.88,South,180,13.8,-999.9,42,-99.99,,,-99.99,,2013-09-20 20:08:00,
2013-09-20 16:14:00,77.0,53.6,29.88,South,183,13.8,-999.9,44,-99.99,,,-99.99,,2013-09-20 20:14:00,
2013-09-20 16:20:00,77.0,53.6,29.88,South,183,13.8,-999.9,44,-99.99,,,-99.99,,2013-09-20 20:20:00,
2013-09-20 16:26:00,77.0,53.6,29.88,South,182,17.3,-999.9,44,-99.99,,,-99.99,,2013-09-20 20:26:00,
2013-09-20 16:32:00,77.0,55.4,29.87,South,185,15.0,-999.9,47,-99.99,,,-99.99,,2013-09-20 20:32:00,
2013-09-20 16:38:00,77.0,55.4,29.87,South,185,15.0,-999.9,47,-99.99,,,-99.99,,2013-09-20 20:38:00,
2013-09-20 16:44:00,75.2,53.6,29.88,South,171,6.9,-999.9,47,-99.99,,,-99.99,,2013-09-20 20:44:00,
2013-09-20 16:50:00,75.2,53.6,29.88,South,171,6.9,-999.9,47,-99.99,,,-99.99,,2013-09-20 20:50:00,
2013-09-20 16:56:00,75.2,53.6,29.88,South,183,15.0,-999.9,47,-99.99,,,-99.99,,2013-09-20 20:56:00,
2013-09-20 17:02:00,75.2,55.4,29.88,South,185,11.5,-999.9,50,-99.99,,,-99.99,,2013-09-20 21:02:00,
2013-09-20 17:08:00,75.2,55.4,29.88,South,185,11.5,-999.9,50,-99.99,,,-99.99,,2013-09-20 21:08:00,
2013-09-20 17:14:00,75.2,57.2,29.88,South,174,12.7,-999.9,53,-99.99,,,-99.99,,2013-09-20 21:14:00,
2013-09-20 17:20:00,75.2,57.2,29.88,South,174,12.7,-999.9,53,-99.99,,,-99.99,,2013-09-20 21:20:00,
2013-09-20 17:26:00,75.2,57.2,29.89,South,185,8.1,-999.9,53,-99.99,,,-99.99,,2013-09-20 21:26:00,
2013-09-20 17:32:00,73.4,55.4,29.89,South,189,9.2,-999.9,53,-99.99,,,-99.99,,2013-09-20 21:32:00,
2013-09-20 17:38:00,73.4,55.4,29.89,South,189,9.2,-999.9,53,-99.99,,,-99.99,,2013-09-20 21:38:00,
2013-09-20 17:44:00,73.4,55.4,29.89,South,181,18.4,-999.9,53,-99.99,,,-99.99,,2013-09-20 21:44:00,
2013-09-20 17:50:00,73.4,55.4,29.89,South,181,18.4,-999.9,53,-99.99,,,-99.99,,2013-09-20 21:50:00,
2013-09-20 17:56:00,71.6,55.4,29.90,South,184,11.5,-999.9,57,-99.99,,,-99.99,,2013-09-20 21:56:00,
2013-09-20 18:02:00,71.6,55.4,29.89,South,187,9.2,-999.9,57,-99.99,,,-99.99,,2013-09-20 22:02:00,
2013-09-20 18:08:00,71.6,55.4,29.89,South,187,9.2,-999.9,57,-99.99,,,-99.99,,2013-09-20 22:08:00,
2013-09-20 18:14:00,71.6,57.2,29.89,South,186,11.5,-999.9,60,-99.99,,,-99.99,,2013-09-20 22:14:00,
2013-09-20 18:20:00,71.6,57.2,29.89,South,186,11.5,-999.9,60,-99.99,,,-99.99,,2013-09-20 22:20:00,
2013-09-20 18:26:00,71.6,57.2,29.89,South,176,17.3,-999.9,60,-99.99,,,-99.99,,2013-09-20 22:26:00,
2013-09-20 18:32:00,69.8,57.2,29.89,South,189,9.2,-999.9,64,-99.99,,,-99.99,,2013-09-20 22:32:00,
2013-09-20 18:38:00,69.8,57.2,29.89,South,189,9.2,-999.9,64,-99.99,,,-99.99,,2013-09-20 22:38:00,
2013-09-20 18:44:00,69.8,59.0,29.89,South,186,12.7,-999.9,68,-99.99,,,-99.99,,2013-09-20 22:44:00,
2013-09-20 18:50:00,69.8,59.0,29.89,South,186,12.7,-999.9,68,-99.99,,,-99.99,,2013-09-20 22:50:00,
2013-09-20 18:56:00,69.8,59.0,29.89,South,183,10.4,-999.9,68,-99.99,,,-99.99,,2013-09-20 22:56:00,
2013-09-20 19:02:00,68.0,57.2,29.89,South,190,9.2,-999.9,68,-99.99,,,-99.99,,2013-09-20 23:02:00,
2013-09-20 19:08:00,68.0,57.2,29.89,South,190,9.2,-999.9,68,-99.99,,,-99.99,,2013-09-20 23:08:00,
2013-09-20 19:14:00,68.0,59.0,29.89,South,185,17.3,-999.9,73,-99.99,,,-99.99,,2013-09-20 23:14:00,
2013-09-20 19:20:00,68.0,59.0,29.89,South,185,17.3,-999.9,73,-99.99,,,-99.99,,2013-09-20 23:20:00,
2013-09-20 19:26:00,68.0,59.0,29.89,South,183,12.7,-999.9,73,-99.99,,,-99.99,,2013-09-20 23:26:00,
2013-09-20 19:32:00,68.0,59.0,29.89,South,191,5.8,-999.9,73,-99.99,,,-99.99,,2013-09-20 23:32:00,
2013-09-20 19:38:00,68.0,59.0,29.89,South,191,5.8,-999.9,73,-99.99,,,-99.99,,2013-09-20 23:38:00,
2013-09-20 19:44:00,68.0,59.0,29.90,South,180,18.4,-999.9,73,-99.99,,,-99.99,,2013-09-20 23:44:00,
2013-09-20 19:50:00,68.0,59.0,29.90,South,180,18.4,-999.9,73,-99.99,,,-99.99,,2013-09-20 23:50:00,
2013-09-20 19:56:00,68.0,59.0,29.90,South,179,9.2,-999.9,73,-99.99,,,-99.99,,2013-09-20 23:56:00,
2013-09-20 20:02:00,68.0,59.0,29.90,South,181,13.8,-999.9,73,-99.99,,,-99.99,,2013-09-21 00:02:00,
2013-09-20 20:08:00,68.0,59.0,29.90,South,181,13.8,-999.9,73,-99.99,,,-99.99,,2013-09-21 00:08:00,
2013-09-20 21:02:00,68.0,59.0,29.90,South,182,13.8,-999.9,73,-99.99,,,-99.99,,2013-09-21 01:02:00,
2013-09-20 21:08:00,68.0,59.0,29.90,South,182,13.8,-999.9,73,-99.99,,,-99.99,,2013-09-21 01:08:00,
2013-09-20 21:14:00,68.0,59.0,29.90,SSW,203,6.9,-999.9,73,-99.99,,,-99.99,,2013-09-21 01:14:00,
2013-09-20 21:20:00,68.0,59.0,29.90,SSW,203,6.9,-999.9,73,-99.99,,,-99.99,,2013-09-21 01:20:00,
2013-09-20 21:26:00,68.0,59.0,29.90,SSW,199,1.2,-999.9,73,-99.99,,,-99.99,,2013-09-21 01:26:00,
2013-09-20 21:32:00,68.0,59.0,29.91,South,190,6.9,-999.9,73,-99.99,,,-99.99,,2013-09-21 01:32:00,
2013-09-20 21:38:00,68.0,59.0,29.91,South,190,6.9,-999.9,73,-99.99,,,-99.99,,2013-09-21 01:38:00,
2013-09-20 21:44:00,68.0,59.0,29.90,SSW,198,3.5,-999.9,73,-99.99,,,-99.99,,2013-09-21 01:44:00,
2013-09-20 21:50:00,68.0,59.0,29.90,SSW,198,3.5,-999.9,73,-99.99,,,-99.99,,2013-09-21 01:50:00,
2013-09-20 21:56:00,68.0,59.0,29.90,SSW,199,10.4,-999.9,73,-99.99,,,-99.99,,2013-09-21 01:56:00,
2013-09-20 22:02:00,68.0,60.8,29.90,SSW,201,8.1,-999.9,78,-99.99,,,-99.99,,2013-09-21 02:02:00,
2013-09-20 22:08:00,68.0,60.8,29.90,SSW,201,8.1,-999.9,78,-99.99,,,-99.99,,2013-09-21 02:08:00,
2013-09-20 22:14:00,68.0,60.8,29.90,SSW,194,5.8,-999.9,78,-99.99,,,-99.99,,2013-09-21 02:14:00,
2013-09-20 22:20:00,68.0,60.8,29.90,SSW,194,5.8,-999.9,78,-99.99,,,-99.99,,2013-09-21 02:20:00,
2013-09-20 22:26:00,68.0,60.8,29.90,SSW,194,10.4,-999.9,78,-99.99,,,-99.99,,2013-09-21 02:26:00,
2013-09-20 22:32:00,66.2,59.0,29.90,SSW,204,6.9,-999.9,78,-99.99,,,-99.99,,2013-09-21 02:32:00,
2013-09-20 22:38:00,66.2,59.0,29.90,SSW,204,6.9,-999.9,78,-99.99,,,-99.99,,2013-09-21 02:38:00,
2013-09-20 22:44:00,66.2,59.0,29.90,SSW,213,6.9,-999.9,78,-99.99,,,-99.99,,2013-09-21 02:44:00,
2013-09-20 22:50:00,66.2,59.0,29.90,SSW,213,6.9,-999.9,78,-99.99,,,-99.99,,2013-09-21 02:50:00,
2013-09-20 22:56:00,66.2,59.0,29.90,SSW,195,6.9,-999.9,78,-99.99,,,-99.99,,2013-09-21 02:56:00,
2013-09-20 23:02:00,66.2,59.0,29.90,SSW,204,9.2,-999.9,78,-99.99,,,-99.99,,2013-09-21 03:02:00,
2013-09-20 23:08:00,66.2,59.0,29.90,SSW,204,9.2,-999.9,78,-99.99,,,-99.99,,2013-09-21 03:08:00,
2013-09-20 23:14:00,66.2,59.0,29.90,South,189,11.5,-999.9,78,-99.99,,,-99.99,,2013-09-21 03:14:00,
2013-09-20 23:20:00,66.2,59.0,29.90,South,189,11.5,-999.9,78,-99.99,,,-99.99,,2013-09-21 03:20:00,
2013-09-20 23:26:00,66.2,59.0,29.91,SSW,210,13.8,-999.9,78,-99.99,,,-99.99,,2013-09-21 03:26:00,
2013-09-20 23:32:00,66.2,60.8,29.91,SSW,196,11.5,-999.9,83,-99.99,,,-99.99,,2013-09-21 03:32:00,
2013-09-20 23:38:00,66.2,60.8,29.91,SSW,196,11.5,-999.9,83,-99.99,,,-99.99,,2013-09-21 03:38:00,
2013-09-20 23:44:00,66.2,60.8,29.90,SSW,193,8.1,-999.9,83,-99.99,,,-99.99,,2013-09-21 03:44:00,
2013-09-20 23:50:00,66.2,60.8,29.90,SSW,193,8.1,-999.9,83,-99.99,,,-99.99,,2013-09-21 03:50:00,
2013-09-20 23:56:00,66.2,60.8,29.90,South,188,8.1,-999.9,83,-99.99,,,-99.99,,2013-09-21 03:56:00,